Time;durP1;ratioP1;P1;durP2;ratioP2;P2;SDS_P1;SDS_P2;PMS_P1;PMS_P2;Temp;Humidity;BMP_temperature;BMP_pressure;BME280_temperature;BME280_humidity;BME280_pressure;Samples;Min_cycle;Max_cycle;Signal;HPM_P1;HPM_P2
2023/11/08 00:03:07;;;;;;;1.48;0.60;;;;;;;7.45;100.00;98027.78;15285030;19;20028;-85
2023/11/08 00:08:32;;;;;;;1.50;0.90;;;;;;;7.46;100.00;98022.25;15292735;19;20035;-84
2023/11/08 00:13:57;;;;;;;2.33;0.70;;;;;;;7.46;100.00;98030.28;15287640;19;20021;-83
2023/11/08 00:19:25;;;;;;;1.05;0.70;;;;;;;7.43;100.00;98032.44;15293701;19;20031;-85
2023/11/08 00:24:51;;;;;;;2.03;0.70;;;;;;;7.37;100.00;98029.34;15289112;19;20017;-82
2023/11/08 00:30:23;;;;;;;2.15;0.63;;;;;;;7.44;100.00;98034.94;15257946;19;20021;-49
2023/11/08 00:35:51;;;;;;;2.90;0.88;;;;;;;7.50;100.00;98031.69;15253325;19;20422;-47
2023/11/08 00:41:16;;;;;;;2.78;0.70;;;;;;;7.50;100.00;98030.81;15283392;19;20048;-48
2023/11/08 00:46:40;;;;;;;1.58;0.60;;;;;;;7.75;100.00;98033.75;15281094;19;20780;-48
2023/11/08 00:52:11;;;;;;;2.20;0.60;;;;;;;7.81;100.00;98022.44;15280638;19;20603;-50
2023/11/08 00:57:35;;;;;;;2.97;0.80;;;;;;;7.77;100.00;98023.72;15023361;19;5001082;-48
2023/11/08 01:03:01;;;;;;;1.92;0.80;;;;;;;7.82;100.00;98021.44;15278041;19;20024;-48
2023/11/08 01:08:29;;;;;;;2.10;0.55;;;;;;;7.75;100.00;98014.97;15275237;19;20070;-47
2023/11/08 01:13:55;;;;;;;3.35;0.80;;;;;;;7.76;100.00;98022.88;15275298;19;20750;-46
2023/11/08 01:19:20;;;;;;;2.22;0.80;;;;;;;7.79;100.00;98006.47;15274552;19;20061;-48
2023/11/08 01:24:48;;;;;;;2.55;0.82;;;;;;;7.66;100.00;98022.09;15272964;19;20010;-46
2023/11/08 01:30:21;;;;;;;1.65;0.63;;;;;;;7.58;100.00;98014.84;15273637;19;20043;-47
2023/11/08 01:35:46;;;;;;;2.60;0.70;;;;;;;7.51;100.00;98013.75;15272160;19;20014;-48
2023/11/08 01:41:14;;;;;;;3.05;0.70;;;;;;;7.47;100.00;98017.72;15272256;19;20017;-47
2023/11/08 01:46:39;;;;;;;2.50;0.80;;;;;;;7.46;100.00;98010.69;15273521;19;20027;-47
2023/11/08 01:52:06;;;;;;;2.15;0.73;;;;;;;7.54;100.00;98003.56;15273171;19;20043;-48
2023/11/08 01:57:34;;;;;;;2.85;0.80;;;;;;;7.60;100.00;98012.00;15274434;19;20338;-50
2023/11/08 02:03:00;;;;;;;2.05;0.75;;;;;;;7.50;100.00;98015.59;15274338;19;20014;-48
2023/11/08 02:08:25;;;;;;;3.33;0.73;;;;;;;7.42;100.00;98015.50;15276231;19;20635;-46
2023/11/08 02:13:59;;;;;;;2.55;0.90;;;;;;;7.33;100.00;98016.41;15267227;19;20123;-48
2023/11/08 02:19:23;;;;;;;2.67;0.80;;;;;;;7.22;100.00;98014.78;15271941;19;20472;-47
2023/11/08 02:24:51;;;;;;;2.13;0.60;;;;;;;7.23;100.00;98014.63;15270541;19;20078;-47
2023/11/08 02:30:16;;;;;;;2.45;0.68;;;;;;;7.24;100.00;98015.47;15270746;19;20508;-48
2023/11/08 02:35:40;;;;;;;1.55;0.63;;;;;;;7.28;100.00;98010.66;15267831;19;20023;-50
2023/11/08 02:41:08;;;;;;;1.77;0.70;;;;;;;7.28;100.00;98024.91;15273050;19;20834;-50
2023/11/08 02:46:40;;;;;;;1.73;0.53;;;;;;;7.25;100.00;98019.84;14742684;19;10000753;-45
2023/11/08 02:52:06;;;;;;;2.20;0.68;;;;;;;7.27;100.00;98023.22;15273054;19;20260;-46
2023/11/08 02:57:34;;;;;;;1.73;0.60;;;;;;;7.29;100.00;98044.50;15269609;19;20787;-46
2023/11/08 03:02:58;;;;;;;1.30;0.50;;;;;;;7.33;100.00;98029.81;15268164;19;20122;-46
2023/11/08 03:08:23;;;;;;;2.15;0.60;;;;;;;7.36;100.00;98042.91;15271024;19;20007;-48
2023/11/08 03:13:51;;;;;;;1.67;0.60;;;;;;;7.36;100.00;98035.69;15269577;19;20397;-44
2023/11/08 03:19:17;;;;;;;1.67;0.73;;;;;;;7.40;100.00;98034.41;15270618;19;20022;-48
2023/11/08 03:24:42;;;;;;;2.47;0.70;;;;;;;7.43;100.00;98033.25;15273568;19;20018;-44
2023/11/08 03:30:12;;;;;;;1.83;0.52;;;;;;;7.42;100.00;98036.94;15274265;19;20016;-45
2023/11/08 03:35:37;;;;;;;3.75;0.57;;;;;;;7.37;100.00;98045.44;15268359;19;20029;-45
2023/11/08 03:41:02;;;;;;;4.10;0.70;;;;;;;7.33;100.00;98046.75;15271095;19;20014;-45
2023/11/08 03:46:36;;;;;;;2.85;0.70;;;;;;;7.27;100.00;98063.41;15260726;19;20340;-44
2023/11/08 03:52:02;;;;;;;1.90;0.70;;;;;;;7.23;100.00;98062.88;15267519;19;20021;-47
2023/11/08 03:57:27;;;;;;;1.35;0.68;;;;;;;7.26;100.00;98064.38;15265798;19;20010;-45
2023/11/08 04:02:54;;;;;;;2.13;0.60;;;;;;;7.31;100.00;98062.13;15267109;19;20054;-45
2023/11/08 04:08:20;;;;;;;1.92;0.60;;;;;;;7.30;100.00;98065.78;15264257;19;20025;-45
2023/11/08 04:13:46;;;;;;;1.52;0.52;;;;;;;7.29;100.00;98060.59;15273100;19;20712;-45
2023/11/08 04:19:13;;;;;;;1.58;0.60;;;;;;;7.29;100.00;98055.22;15274505;19;20433;-43
2023/11/08 04:24:38;;;;;;;1.05;0.47;;;;;;;7.28;100.00;98062.41;15278013;19;20419;-46
2023/11/08 04:30:04;;;;;;;1.60;0.50;;;;;;;7.26;100.00;98053.66;15282651;19;20377;-45
2023/11/08 04:35:31;;;;;;;1.52;0.50;;;;;;;7.20;100.00;98054.28;15277682;19;20017;-46
2023/11/08 04:40:56;;;;;;;1.80;0.60;;;;;;;7.18;100.00;98056.25;15277420;19;20014;-45
2023/11/08 04:46:21;;;;;;;1.45;0.50;;;;;;;7.19;100.00;98066.81;15275394;19;20022;-43
2023/11/08 04:51:42;;;;;;;1.00;0.50;;;;;;;7.22;100.00;98054.97;15276210;19;20014;-44
2023/11/08 04:57:07;;;;;;;1.08;0.50;;;;;;;7.28;100.00;98069.63;15279904;19;20746;-45
2023/11/08 05:02:34;;;;;;;1.75;0.40;;;;;;;7.32;100.00;98077.22;15277803;19;20017;-46
2023/11/08 05:08:02;;;;;;;0.60;0.40;;;;;;;7.39;100.00;98056.03;15279493;19;20016;-45
2023/11/08 05:13:28;;;;;;;1.67;0.60;;;;;;;7.41;100.00;98070.09;15277478;19;20013;-44
2023/11/08 05:18:52;;;;;;;2.17;0.70;;;;;;;7.43;100.00;98072.63;15275906;19;20019;-46
2023/11/08 05:24:21;;;;;;;0.98;0.40;;;;;;;7.45;100.00;98076.84;15269665;19;20066;-44
2023/11/08 05:29:46;;;;;;;1.40;0.50;;;;;;;7.47;100.00;98080.22;15278790;19;20017;-43
2023/11/08 05:35:12;;;;;;;2.67;0.70;;;;;;;7.50;100.00;98076.38;15276722;19;20044;-44
2023/11/08 05:40:40;;;;;;;1.77;0.57;;;;;;;7.49;100.00;98070.19;15276024;19;20010;-44
2023/11/08 05:46:11;;;;;;;0.90;0.43;;;;;;;7.52;100.00;98080.63;15269326;19;20019;-44
2023/11/08 05:51:37;;;;;;;0.88;0.38;;;;;;;7.56;100.00;98078.47;15279298;19;20019;-45
2023/11/08 05:57:04;;;;;;;1.05;0.40;;;;;;;7.59;100.00;98083.53;15270727;19;20029;-44
2023/11/08 06:02:28;;;;;;;2.55;0.60;;;;;;;7.60;100.00;98087.06;15276235;19;20010;-45
2023/11/08 06:07:55;;;;;;;1.27;0.60;;;;;;;7.61;100.00;98094.13;15277039;19;20025;-44
2023/11/08 06:13:22;;;;;;;1.35;0.50;;;;;;;7.62;100.00;98095.81;15273699;19;20101;-44
2023/11/08 06:18:48;;;;;;;1.55;0.50;;;;;;;7.65;100.00;98101.72;15274724;19;20031;-43
2023/11/08 06:24:12;;;;;;;1.48;0.60;;;;;;;7.65;100.00;98099.03;15272994;19;20018;-45
2023/11/08 06:29:40;;;;;;;1.45;0.60;;;;;;;7.68;100.00;98100.56;15265779;19;20292;-45
2023/11/08 06:35:06;;;;;;;4.57;0.60;;;;;;;7.69;100.00;98100.41;15268300;19;20014;-45
2023/11/08 06:40:31;;;;;;;1.05;0.50;;;;;;;7.70;100.00;98103.94;15267992;19;20028;-44
2023/11/08 06:45:59;;;;;;;1.52;0.50;;;;;;;7.74;100.00;98104.47;15270679;19;20478;-45
2023/11/08 06:51:25;;;;;;;2.35;0.60;;;;;;;7.77;100.00;98117.56;15272598;19;20483;-44
2023/11/08 06:56:49;;;;;;;2.72;0.70;;;;;;;7.84;100.00;98115.97;15272377;19;20017;-44
2023/11/08 07:02:17;;;;;;;1.15;0.70;;;;;;;7.88;100.00;98122.72;15266280;19;20070;-44
2023/11/08 07:07:44;;;;;;;1.75;0.60;;;;;;;7.92;100.00;98139.34;15270526;19;20842;-44
2023/11/08 07:13:09;;;;;;;2.72;0.70;;;;;;;7.94;100.00;98148.94;15271173;19;20018;-45
2023/11/08 07:18:37;;;;;;;3.25;0.80;;;;;;;7.97;100.00;98145.13;15269213;19;20028;-45
2023/11/08 07:24:02;;;;;;;2.45;0.68;;;;;;;8.02;100.00;98151.72;15269561;19;20040;-44
2023/11/08 07:29:27;;;;;;;1.45;0.43;;;;;;;8.08;100.00;98152.94;15268868;19;20014;-44
2023/11/08 07:34:55;;;;;;;1.75;0.68;;;;;;;8.12;100.00;98157.00;15261506;19;20010;-44
2023/11/08 07:40:21;;;;;;;2.75;0.63;;;;;;;8.20;100.00;98169.66;15267962;19;20426;-44
2023/11/08 07:45:49;;;;;;;2.08;0.60;;;;;;;8.24;100.00;98173.75;15264665;19;20479;-44
2023/11/08 07:51:18;;;;;;;1.77;0.70;;;;;;;8.28;100.00;98172.44;15285011;19;20027;-44
2023/11/08 07:56:43;;;;;;;1.88;0.60;;;;;;;8.33;100.00;98175.50;15278063;19;20049;-44
2023/11/08 08:02:08;;;;;;;1.48;0.60;;;;;;;8.37;100.00;98177.88;15274894;19;20030;-46
2023/11/08 08:07:36;;;;;;;1.58;0.73;;;;;;;8.39;100.00;98189.31;15278948;19;20028;-44
2023/11/08 08:13:03;;;;;;;1.83;0.52;;;;;;;8.43;100.00;98191.53;15281901;19;20397;-44
2023/11/08 08:18:37;;;;;;;2.15;0.70;;;;;;;8.47;100.00;98194.75;15281051;19;20053;-45
2023/11/08 08:24:05;;;;;;;2.50;0.63;;;;;;;8.55;100.00;98192.16;15280260;19;20097;-44
2023/11/08 08:29:30;;;;;;;0.90;0.50;;;;;;;8.62;100.00;98195.94;15281308;19;20014;-44
2023/11/08 08:34:56;;;;;;;1.67;0.70;;;;;;;8.68;100.00;98207.03;15273132;19;20018;-45
2023/11/08 08:40:23;;;;;;;3.22;0.80;;;;;;;8.74;100.00;98198.38;15272304;19;20025;-44
2023/11/08 08:45:54;;;;;;;2.40;0.70;;;;;;;8.81;100.00;98196.75;15283637;19;20487;-83
2023/11/08 08:51:25;;;;;;;1.80;0.70;;;;;;;8.89;100.00;98193.28;15374791;19;20017;-84
2023/11/08 08:56:45;;;;;;;1.88;0.60;;;;;;;8.98;100.00;98202.28;15296783;19;20011;-84
2023/11/08 09:02:10;;;;;;;1.52;0.70;;;;;;;9.05;100.00;98216.75;15289838;19;20021;-84
2023/11/08 09:07:35;;;;;;;0.80;0.50;;;;;;;9.17;100.00;98194.00;15291444;19;20014;-83
2023/11/08 09:13:03;;;;;;;1.10;0.45;;;;;;;9.22;100.00;98193.50;15316889;19;20010;-83
2023/11/08 09:18:28;;;;;;;1.42;0.50;;;;;;;9.30;100.00;98198.09;15296200;19;20029;-83
2023/11/08 09:23:56;;;;;;;1.60;0.50;;;;;;;9.46;100.00;98206.28;15293470;19;20018;-83
2023/11/08 09:29:24;;;;;;;1.88;0.43;;;;;;;9.47;100.00;98194.50;15296595;19;20010;-82
2023/11/08 09:34:50;;;;;;;1.98;0.60;;;;;;;9.57;100.00;98189.00;15300601;19;20078;-83
2023/11/08 09:40:16;;;;;;;2.30;0.60;;;;;;;9.55;100.00;98204.44;15298942;19;20018;-83
2023/11/08 09:45:51;;;;;;;1.85;0.47;;;;;;;9.63;100.00;98209.91;15286320;19;20010;-82
2023/11/08 09:51:17;;;;;;;0.80;0.30;;;;;;;9.67;100.00;98215.78;15289359;19;20020;-83
2023/11/08 09:56:43;;;;;;;0.98;0.47;;;;;;;9.71;100.00;98196.47;15306288;19;20022;-84
2023/11/08 10:02:12;;;;;;;1.23;0.47;;;;;;;9.87;100.00;98206.47;15301987;19;20478;-82
2023/11/08 10:07:39;;;;;;;1.17;0.40;;;;;;;9.96;100.00;98204.66;15316623;19;20019;-83
2023/11/08 10:13:05;;;;;;;1.27;0.40;;;;;;;10.16;100.00;98205.22;15290950;19;20019;-84
2023/11/08 10:18:36;;;;;;;1.55;0.50;;;;;;;10.29;100.00;98207.44;15290113;19;20550;-84
2023/11/08 10:24:23;;;;;;;0.47;0.40;;;;;;;10.25;100.00;98197.16;15294587;19;20043;-85
2023/11/08 10:29:55;;;;;;;1.23;0.47;;;;;;;10.43;100.00;98208.66;15295569;19;20093;-85
2023/11/08 10:35:51;;;;;;;0.50;0.22;;;;;;;10.62;100.00;98190.53;15294707;19;20014;-84
2023/11/08 10:41:18;;;;;;;1.45;0.50;;;;;;;10.70;100.00;98212.06;15295517;19;20039;-83
2023/11/08 10:46:52;;;;;;;0.75;0.40;;;;;;;10.71;100.00;98191.34;15313216;19;20478;-84
2023/11/08 10:52:21;;;;;;;1.02;0.40;;;;;;;10.48;100.00;98202.78;15286281;19;20475;-85
2023/11/08 10:57:50;;;;;;;1.92;0.60;;;;;;;10.25;100.00;98211.44;15286098;19;20018;-84
2023/11/08 11:03:15;;;;;;;0.93;0.40;;;;;;;10.09;100.00;98193.41;15283875;19;20014;-83
2023/11/08 11:08:49;;;;;;;1.02;0.50;;;;;;;10.00;100.00;98189.00;15288180;19;20066;-83
2023/11/08 11:14:28;;;;;;;1.48;0.35;;;;;;;10.06;100.00;98199.13;15291912;19;20050;-87
2023/11/08 11:19:56;;;;;;;1.10;0.40;;;;;;;10.11;100.00;98199.47;15293183;19;20011;-83
2023/11/08 11:25:51;;;;;;;0.95;0.40;;;;;;;10.07;100.00;98206.19;15296945;19;20047;-81
2023/11/08 11:31:49;;;;;;;1.05;0.40;;;;;;;9.99;100.00;98203.47;15296172;19;20071;-81
2023/11/08 11:37:18;;;;;;;2.38;0.80;;;;;;;9.91;100.00;98206.16;15287749;19;20090;-81
2023/11/08 11:42:48;;;;;;;2.10;0.50;;;;;;;9.87;100.00;98201.09;15286776;19;20013;-82
2023/11/08 11:48:13;;;;;;;1.08;0.45;;;;;;;9.90;100.00;98201.75;15284172;19;20097;-82
2023/11/08 11:53:39;;;;;;;1.77;0.43;;;;;;;9.90;100.00;98183.75;15322763;19;20026;-82
2023/11/08 11:59:08;;;;;;;1.02;0.50;;;;;;;10.02;100.00;98181.63;15281933;19;20554;-83
2023/11/08 12:04:33;;;;;;;0.73;0.38;;;;;;;10.21;100.00;98180.50;15307481;19;20011;-85
2023/11/08 12:09:58;;;;;;;1.75;0.50;;;;;;;10.21;100.00;98185.03;15330613;19;20018;-83
2023/11/08 12:15:27;;;;;;;2.50;0.60;;;;;;;10.11;100.00;98180.63;15307818;19;20070;-86
2023/11/08 12:20:52;;;;;;;2.00;0.50;;;;;;;10.15;100.00;98165.84;15279966;19;20023;-82
2023/11/08 12:26:18;;;;;;;1.25;0.47;;;;;;;10.35;100.00;98173.63;15276268;19;20466;31
2023/11/08 12:31:53;;;;;;;0.98;0.50;;;;;;;10.56;100.00;98169.63;15254461;19;20019;-49
2023/11/08 12:37:24;;;;;;;1.80;0.40;;;;;;;10.51;100.00;98178.22;15274444;19;20074;-46
2023/11/08 12:42:52;;;;;;;1.38;0.55;;;;;;;10.40;100.00;98179.38;15273479;19;20022;-48
2023/11/08 12:48:40;;;;;;;2.25;0.60;;;;;;;10.33;100.00;98181.00;15279573;19;20558;-49
2023/11/08 12:54:06;;;;;;;1.52;0.55;;;;;;;10.30;100.00;98178.63;15278656;19;20018;-50
2023/11/08 12:59:32;;;;;;;1.27;0.50;;;;;;;10.28;100.00;98183.38;15277701;19;20031;-50
2023/11/08 13:05:00;;;;;;;2.78;0.70;;;;;;;10.24;100.00;98172.06;15279224;19;20010;-45
2023/11/08 13:10:26;;;;;;;1.40;0.55;;;;;;;10.23;100.00;98185.72;15278785;19;20017;-47
2023/11/08 13:15:52;;;;;;;1.17;0.50;;;;;;;10.19;100.00;98171.75;15275430;19;20015;-48
2023/11/08 13:21:20;;;;;;;1.15;0.60;;;;;;;10.28;100.00;98175.28;15276102;19;20357;-46
2023/11/08 13:26:45;;;;;;;1.48;0.50;;;;;;;10.37;100.00;98192.28;15269142;19;20018;-51
2023/11/08 13:32:11;;;;;;;2.10;0.68;;;;;;;10.29;100.00;98169.72;15278159;19;20014;-47
2023/11/08 13:37:39;;;;;;;1.95;0.60;;;;;;;10.46;100.00;98169.81;15276449;19;20022;-50
2023/11/08 13:43:05;;;;;;;2.25;0.63;;;;;;;10.57;100.00;98158.69;15274319;19;20022;-47
2023/11/08 13:48:31;;;;;;;3.00;0.73;;;;;;;10.45;100.00;98171.63;15276377;19;20078;-50
2023/11/08 13:53:58;;;;;;;1.63;0.60;;;;;;;10.35;100.00;98178.16;15269526;19;20033;-47
2023/11/08 13:59:25;;;;;;;3.25;0.77;;;;;;;10.29;100.00;98175.13;15270852;19;20019;-50
2023/11/08 14:04:50;;;;;;;1.52;0.60;;;;;;;10.23;100.00;98170.38;15271850;19;20014;-45
2023/11/08 14:10:18;;;;;;;2.85;0.80;;;;;;;10.21;100.00;98180.50;15273721;19;20020;-52
2023/11/08 14:15:44;;;;;;;3.55;0.80;;;;;;;10.12;100.00;98171.56;15273018;19;20014;-46
2023/11/08 14:21:08;;;;;;;4.50;1.00;;;;;;;10.05;100.00;98177.75;15274259;19;20007;-46
2023/11/08 14:26:35;;;;;;;3.22;0.73;;;;;;;9.94;100.00;98173.50;15270443;19;20022;-47
2023/11/08 14:32:01;;;;;;;3.33;0.60;;;;;;;9.87;100.00;98167.97;15269267;19;20329;-48
2023/11/08 14:37:27;;;;;;;2.00;0.70;;;;;;;9.79;100.00;98166.09;15272942;19;20090;-48
2023/11/08 14:42:55;;;;;;;2.55;0.80;;;;;;;9.77;100.00;98175.28;15264744;19;20015;-48
2023/11/08 14:48:20;;;;;;;2.20;0.80;;;;;;;9.70;100.00;98167.88;15272410;19;20014;-48
2023/11/08 14:53:45;;;;;;;2.78;0.82;;;;;;;9.63;100.00;98168.69;15271856;19;20014;-46
2023/11/08 14:59:13;;;;;;;2.40;0.70;;;;;;;9.57;100.00;98164.81;15269278;19;20696;-46
2023/11/08 15:04:42;;;;;;;3.10;0.80;;;;;;;9.52;100.00;98165.28;15264354;19;20019;-48
2023/11/08 15:10:10;;;;;;;5.40;1.00;;;;;;;9.47;100.00;98162.22;15269221;19;20505;-50
2023/11/08 15:15:39;;;;;;;2.88;1.10;;;;;;;9.43;100.00;98160.03;15263684;19;20036;-46
2023/11/08 15:21:06;;;;;;;5.05;1.10;;;;;;;9.38;100.00;98158.69;15267984;19;20126;-48
2023/11/08 15:26:30;;;;;;;2.85;0.88;;;;;;;9.32;100.00;98155.78;15267817;19;20015;-47
2023/11/08 15:32:09;;;;;;;2.78;0.80;;;;;;;9.27;100.00;98155.41;15268573;19;20016;-47
2023/11/08 15:37:35;;;;;;;3.00;1.13;;;;;;;9.23;100.00;98155.72;15264368;19;20372;-49
2023/11/08 15:42:59;;;;;;;2.03;0.80;;;;;;;9.17;100.00;98159.06;15253392;19;20082;-48
2023/11/08 15:48:28;;;;;;;1.85;0.80;;;;;;;9.06;100.00;98152.09;15257048;19;20017;-46
2023/11/08 15:53:53;;;;;;;3.72;0.90;;;;;;;8.97;100.00;98149.53;15267720;19;20494;-46
2023/11/08 15:59:18;;;;;;;2.05;0.80;;;;;;;8.90;100.00;98146.63;15265139;19;20082;-46
2023/11/08 16:04:45;;;;;;;3.05;1.10;;;;;;;8.89;100.00;98153.00;15260727;19;20040;-48
2023/11/08 16:10:11;;;;;;;1.95;0.70;;;;;;;8.84;100.00;98148.09;15272822;19;20022;-47
2023/11/08 16:15:38;;;;;;;2.45;0.68;;;;;;;8.77;100.00;98139.81;15275960;19;20029;-49
2023/11/08 16:21:11;;;;;;;1.95;0.98;;;;;;;8.73;100.00;98141.13;15274792;19;20041;-51
2023/11/08 16:26:35;;;;;;;2.90;0.90;;;;;;;8.66;100.00;98136.53;15274259;19;20007;-50
2023/11/08 16:32:06;;;;;;;2.67;0.98;;;;;;;8.59;100.00;98131.78;15275510;19;20028;-48
2023/11/08 16:37:54;;;;;;;1.88;1.00;;;;;;;8.48;100.00;98124.81;15270081;19;20022;-49
2023/11/08 16:43:20;;;;;;;2.15;1.05;;;;;;;8.43;100.00;98126.25;15271927;19;20106;-49
2023/11/08 16:48:47;;;;;;;2.00;0.80;;;;;;;8.32;100.00;98136.22;15269566;19;20044;-49
2023/11/08 16:54:15;;;;;;;2.53;1.00;;;;;;;8.22;100.00;98129.28;15263924;19;20497;-45
2023/11/08 16:59:41;;;;;;;2.33;1.20;;;;;;;8.12;100.00;98130.16;15272144;19;20037;-51
2023/11/08 17:05:06;;;;;;;4.47;1.45;;;;;;;8.08;100.00;98133.31;15264899;19;20366;-48
2023/11/08 17:10:33;;;;;;;4.13;1.55;;;;;;;8.00;100.00;98126.03;15272247;19;20025;-49
2023/11/08 17:15:59;;;;;;;4.47;1.40;;;;;;;7.92;100.00;98115.22;15266987;19;20266;-49
2023/11/08 17:21:30;;;;;;;4.38;1.10;;;;;;;7.86;100.00;98119.34;15270199;19;20026;-45
2023/11/08 17:26:58;;;;;;;3.80;1.20;;;;;;;7.79;100.00;98118.28;15257722;19;20017;-44
2023/11/08 17:32:23;;;;;;;5.65;2.25;;;;;;;7.76;100.00;98115.88;15270309;19;20110;-48
2023/11/08 17:37:47;;;;;;;4.20;2.33;;;;;;;7.74;100.00;98105.31;15273298;19;20353;-47
2023/11/08 17:43:14;;;;;;;3.08;1.60;;;;;;;7.69;100.00;98102.25;15271178;19;20085;-49
2023/11/08 17:48:40;;;;;;;3.72;1.80;;;;;;;7.65;100.00;98112.44;15272631;19;20599;-50
2023/11/08 17:54:05;;;;;;;2.90;1.80;;;;;;;7.62;100.00;98107.34;15273440;19;20077;-46
2023/11/08 17:59:33;;;;;;;4.88;1.90;;;;;;;7.59;100.00;98106.81;15256175;19;20026;-48
2023/11/08 18:04:58;;;;;;;4.03;1.50;;;;;;;7.53;100.00;98108.25;15266582;19;20019;-50
2023/11/08 18:10:22;;;;;;;2.75;1.20;;;;;;;7.47;100.00;98098.97;15274011;19;20025;-49
2023/11/08 18:15:49;;;;;;;3.45;1.70;;;;;;;7.43;100.00;98091.41;15267918;19;20360;-46
2023/11/08 18:21:14;;;;;;;1.67;1.10;;;;;;;7.38;100.00;98083.81;15270876;19;20022;-48
2023/11/08 18:26:39;;;;;;;2.08;0.85;;;;;;;7.29;100.00;98085.53;15267507;19;20035;-50
2023/11/08 18:32:13;;;;;;;2.63;1.10;;;;;;;7.22;100.00;98084.47;15259486;19;20014;-48
2023/11/08 18:37:38;;;;;;;1.85;0.90;;;;;;;7.13;100.00;98074.59;15265534;19;20021;-47
2023/11/08 18:43:02;;;;;;;2.38;1.20;;;;;;;7.06;100.00;98075.22;15267045;19;20025;-50
2023/11/08 18:48:29;;;;;;;3.70;1.10;;;;;;;7.01;100.00;98069.44;15267564;19;20021;-51
2023/11/08 18:53:54;;;;;;;2.30;0.90;;;;;;;6.97;100.00;98064.53;15266854;19;20010;-51
2023/11/08 18:59:19;;;;;;;3.75;0.80;;;;;;;6.93;100.00;98053.28;15270046;19;20528;-49
2023/11/08 19:04:46;;;;;;;2.25;0.70;;;;;;;6.93;100.00;98047.91;15256316;19;20024;-49
2023/11/08 19:10:12;;;;;;;1.80;0.93;;;;;;;6.87;100.00;98052.03;15268270;19;20360;-47
2023/11/08 19:15:37;;;;;;;2.00;0.93;;;;;;;6.85;100.00;98045.97;15261727;19;20022;-49
2023/11/08 19:21:05;;;;;;;1.55;0.90;;;;;;;6.83;100.00;98055.16;15266359;19;20029;-48
2023/11/08 19:26:29;;;;;;;3.17;1.00;;;;;;;6.83;100.00;98042.59;15264645;19;20488;-50
2023/11/08 19:32:01;;;;;;;3.03;1.05;;;;;;;6.77;100.00;98041.34;15266932;19;20074;-51
2023/11/08 19:37:28;;;;;;;2.33;1.10;;;;;;;6.71;100.00;98033.91;15261436;19;20101;-46
2023/11/08 19:42:53;;;;;;;3.20;1.60;;;;;;;6.66;100.00;98030.81;15264658;19;20093;-46
2023/11/08 19:48:19;;;;;;;3.28;1.60;;;;;;;6.59;100.00;98025.19;15258714;19;20358;-48
2023/11/08 19:53:46;;;;;;;2.08;1.15;;;;;;;6.57;100.00;98021.84;15265040;19;20399;-48
2023/11/08 19:59:12;;;;;;;3.92;1.00;;;;;;;6.53;100.00;98009.72;15267156;19;20011;-50
2023/11/08 20:04:38;;;;;;;2.13;1.00;;;;;;;6.54;100.00;97997.19;15260445;19;20015;-48
2023/11/08 20:10:09;;;;;;;0.98;0.77;;;;;;;6.62;100.00;97990.13;15263141;19;20009;-49
2023/11/08 20:15:34;;;;;;;1.27;0.80;;;;;;;6.66;100.00;97982.63;15257569;19;20367;-45
2023/11/08 20:21:00;;;;;;;2.15;0.80;;;;;;;6.71;100.00;97985.72;15268596;19;20018;-47
2023/11/08 20:26:27;;;;;;;1.33;0.80;;;;;;;6.70;100.00;97978.69;15261713;19;20054;-45
2023/11/08 20:32:00;;;;;;;2.47;0.90;;;;;;;6.66;100.00;97971.09;15254229;19;20775;-46
2023/11/08 20:37:25;;;;;;;1.83;0.80;;;;;;;6.66;100.00;97971.94;15255553;19;20015;-45
2023/11/08 20:42:52;;;;;;;1.27;0.88;;;;;;;6.71;100.00;97963.44;15253179;19;20082;-47
2023/11/08 20:48:17;;;;;;;2.10;0.88;;;;;;;6.71;100.00;97964.31;15264408;19;20016;-47
2023/11/08 20:53:41;;;;;;;1.65;0.90;;;;;;;6.78;100.00;97949.31;15266796;19;20037;-47
2023/11/08 20:59:09;;;;;;;1.20;0.90;;;;;;;6.82;100.00;97949.88;15280192;19;20021;-49
2023/11/08 21:04:34;;;;;;;1.20;0.70;;;;;;;6.89;100.00;97950.09;15277910;19;20170;-48
2023/11/08 21:10:00;;;;;;;2.30;0.70;;;;;;;6.98;100.00;97945.69;15281290;19;20066;-48
2023/11/08 21:15:28;;;;;;;0.98;0.60;;;;;;;7.01;100.00;97948.09;15269135;19;20073;-45
2023/11/08 21:20:53;;;;;;;2.85;0.82;;;;;;;7.06;100.00;97938.59;15279501;19;20018;-49
2023/11/08 21:26:21;;;;;;;1.35;0.80;;;;;;;7.08;100.00;97933.94;15274369;19;20086;-49
2023/11/08 21:31:55;;;;;;;2.60;0.70;;;;;;;7.10;100.00;97933.78;15277252;19;20029;-48
2023/11/08 21:37:20;;;;;;;0.68;0.60;;;;;;;7.12;100.00;97926.44;15279805;19;20089;-47
2023/11/08 21:42:44;;;;;;;3.00;0.80;;;;;;;7.18;100.00;97915.09;15277891;19;20010;-46
2023/11/08 21:48:12;;;;;;;1.23;0.60;;;;;;;7.20;100.00;97920.31;15271732;19;20035;-49
2023/11/08 21:53:37;;;;;;;1.42;0.82;;;;;;;7.16;100.00;97908.22;15275681;19;20035;-48
2023/11/08 21:59:02;;;;;;;0.75;0.57;;;;;;;7.12;100.00;97896.13;15275110;19;20014;-47
2023/11/08 22:04:30;;;;;;;2.95;0.75;;;;;;;7.08;100.00;97880.38;15267894;19;20006;-47
2023/11/08 22:09:56;;;;;;;1.42;0.75;;;;;;;7.04;100.00;97867.44;15275388;19;20021;-44
2023/11/08 22:15:20;;;;;;;2.78;0.60;;;;;;;7.00;100.00;97858.84;15273195;19;20022;-45
2023/11/08 22:20:48;;;;;;;1.80;0.70;;;;;;;7.00;100.00;97856.16;15273775;19;20031;-48
2023/11/08 22:26:13;;;;;;;1.23;0.70;;;;;;;7.07;100.00;97849.22;15270870;19;20015;-47
2023/11/08 22:31:41;;;;;;;0.93;0.65;;;;;;;7.20;100.00;97851.50;15273914;19;20370;-49
2023/11/08 22:37:09;;;;;;;1.85;0.57;;;;;;;7.28;100.00;97850.75;15271788;19;20006;-45
2023/11/08 22:42:37;;;;;;;0.50;0.50;;;;;;;7.33;100.00;97843.09;15277806;19;20011;-45
2023/11/08 22:48:01;;;;;;;2.25;0.52;;;;;;;7.43;100.00;97839.47;15276209;19;20017;-49
2023/11/08 22:53:29;;;;;;;0.60;0.43;;;;;;;7.47;100.00;97827.41;15276032;19;20086;-48
2023/11/08 22:58:56;;;;;;;0.93;0.50;;;;;;;7.54;100.00;97820.47;15276160;19;20070;-44
2023/11/08 23:04:24;;;;;;;0.90;0.60;;;;;;;7.57;100.00;97820.16;15271113;19;20482;-45
2023/11/08 23:09:53;;;;;;;0.68;0.40;;;;;;;7.61;100.00;97818.00;15277343;19;20011;-44
2023/11/08 23:15:18;;;;;;;1.73;0.77;;;;;;;7.61;100.00;97810.78;15273750;19;20011;-45
2023/11/08 23:20:44;;;;;;;3.50;0.70;;;;;;;7.60;100.00;97806.41;15267467;19;20066;-45
2023/11/08 23:26:12;;;;;;;0.73;0.52;;;;;;;7.59;100.00;97803.91;15270513;19;20091;-44
2023/11/08 23:31:44;;;;;;;0.98;0.50;;;;;;;7.56;100.00;97791.66;15272868;19;20327;-45
2023/11/08 23:37:10;;;;;;;1.27;0.50;;;;;;;7.56;100.00;97797.03;15266981;19;20664;-49
2023/11/08 23:42:38;;;;;;;0.73;0.50;;;;;;;7.55;100.00;97796.16;15272196;19;20014;-50
2023/11/08 23:48:08;;;;;;;1.77;0.40;;;;;;;7.55;100.00;97790.81;15271472;19;20113;-47
2023/11/08 23:53:33;;;;;;;1.27;0.68;;;;;;;7.58;100.00;97784.31;15270510;19;20011;-47
2023/11/08 23:59:06;;;;;;;0.98;0.60;;;;;;;7.65;100.00;97789.84;15282242;19;20017;-46
